Time;durP1;ratioP1;P1;durP2;ratioP2;P2;SDS_P1;SDS_P2;PMS_P1;PMS_P2;Temp;Humidity;BMP_temperature;BMP_pressure;BME280_temperature;BME280_humidity;BME280_pressure;Samples;Min_cycle;Max_cycle;Signal;HPM_P1;HPM_P2
2022/01/02 00:00:07;;;;;;;18.48;10.43;;;7.50;99.90;;;;;;4998956;28;20030;-79
2022/01/02 00:02:35;;;;;;;20.97;10.77;;;7.30;99.90;;;;;;4995969;28;20033;-77
2022/01/02 00:05:05;;;;;;;18.05;10.43;;;7.30;99.90;;;;;;4991140;28;20832;-80
2022/01/02 00:07:34;;;;;;;17.65;10.23;;;7.30;99.90;;;;;;4998622;28;20042;-84
2022/01/02 00:10:04;;;;;;;17.08;9.70;;;7.30;99.90;;;;;;4991735;28;20116;-80
2022/01/02 00:12:33;;;;;;;26.17;11.88;;;7.30;99.90;;;;;;4999428;28;20018;-81
2022/01/02 00:15:04;;;;;;;18.88;9.48;;;7.20;99.90;;;;;;4995460;28;20101;-85
2022/01/02 00:17:31;;;;;;;16.52;9.57;;;7.20;99.90;;;;;;4995946;28;20039;-81
2022/01/02 00:20:03;;;;;;;15.95;9.27;;;7.20;99.90;;;;;;4990635;28;20121;-83
2022/01/02 00:22:34;;;;;;;14.07;9.18;;;7.20;99.90;;;;;;4999902;28;20407;-83
2022/01/02 00:25:03;;;;;;;14.77;9.55;;;7.30;99.90;;;;;;5001057;28;20457;-84
2022/01/02 00:27:31;;;;;;;16.42;10.75;;;7.20;99.90;;;;;;4993250;28;20034;-83
2022/01/02 00:29:57;;;;;;;19.42;9.93;;;7.20;99.90;;;;;;4990963;28;20059;-84
2022/01/02 00:32:23;;;;;;;17.02;9.20;;;7.20;99.90;;;;;;4999511;28;20106;-80
2022/01/02 00:34:51;;;;;;;16.65;8.93;;;7.10;99.90;;;;;;4999672;28;20038;-85
2022/01/02 00:37:18;;;;;;;17.70;10.05;;;;;;;;;;4995517;28;20514;-83
2022/01/02 00:39:43;;;;;;;18.38;9.35;;;7.00;99.90;;;;;;4997007;28;20037;-86
2022/01/02 00:42:11;;;;;;;18.65;10.65;;;7.10;99.90;;;;;;5023662;28;20031;-83
2022/01/02 00:45:10;;;;;;;19.33;9.88;;;7.10;99.90;;;;;;4992205;28;20980;-83
2022/01/02 00:47:36;;;;;;;25.48;11.75;;;7.10;99.90;;;;;;4993482;28;20030;-82
2022/01/02 00:50:09;;;;;;;14.82;9.75;;;8.00;99.90;;;;;;4981580;28;20042;-86
2022/01/02 00:52:37;;;;;;;20.20;11.75;;;7.10;99.90;;;;;;4980927;28;20019;-85
2022/01/02 00:55:08;;;;;;;19.98;11.95;;;7.10;99.90;;;;;;4988974;28;20023;-79
2022/01/02 00:57:37;;;;;;;16.88;9.70;;;7.00;99.90;;;;;;4987476;28;20034;-85
2022/01/02 01:00:14;;;;;;;20.42;10.95;;;7.00;99.90;;;;;;4985278;28;20023;-85
2022/01/02 01:02:54;;;;;;;17.77;10.00;;;7.00;99.90;;;;;;5004249;28;20839;-83
2022/01/02 01:05:23;;;;;;;18.92;10.43;;;7.00;99.90;;;;;;4983494;28;20068;-81
2022/01/02 01:07:51;;;;;;;19.05;10.68;;;7.00;99.90;;;;;;4985116;28;20034;-82
2022/01/02 01:10:18;;;;;;;19.88;9.90;;;7.00;99.90;;;;;;4984189;28;20561;-81
2022/01/02 01:12:45;;;;;;;18.55;10.27;;;7.10;99.90;;;;;;4982722;28;20398;-84
2022/01/02 01:15:11;;;;;;;16.58;10.07;;;7.10;99.90;;;;;;4982290;28;20031;-81
2022/01/02 01:17:38;;;;;;;22.55;11.15;;;7.10;99.90;;;;;;5012186;28;20035;-82
2022/01/02 01:20:12;;;;;;;16.60;11.27;;;7.10;99.90;;;;;;4977133;28;20034;-83
2022/01/02 01:22:38;;;;;;;17.33;10.85;;;7.10;99.90;;;;;;4983964;28;20029;-78
2022/01/02 01:25:07;;;;;;;18.48;9.98;;;7.10;99.90;;;;;;4996648;28;20050;-84
2022/01/02 01:27:33;;;;;;;17.98;11.32;;;7.10;99.90;;;;;;4989123;28;20030;-80
2022/01/02 01:29:59;;;;;;;17.75;10.93;;;7.00;99.90;;;;;;4989520;28;20447;-82
2022/01/02 01:32:24;;;;;;;16.55;10.25;;;7.00;99.90;;;;;;4985984;28;20510;-82
2022/01/02 01:34:50;;;;;;;16.65;10.15;;;7.00;99.90;;;;;;4987771;28;20030;-80
2022/01/02 01:37:16;;;;;;;16.10;10.00;;;;;;;;;;4981602;28;20022;-82
2022/01/02 01:39:42;;;;;;;17.42;9.45;;;6.90;99.90;;;;;;4983107;28;20038;-84
2022/01/02 01:42:10;;;;;;;19.25;10.50;;;6.90;99.90;;;;;;4981352;28;20030;-83
2022/01/02 01:45:02;;;;;;;17.75;10.55;;;6.80;99.90;;;;;;4981941;28;20693;-82
2022/01/02 01:47:25;;;;;;;18.55;10.27;;;;;;;;;;4991309;28;20120;-83
2022/01/02 01:49:51;;;;;;;15.13;9.65;;;6.80;99.90;;;;;;4990037;28;20050;-83
2022/01/02 01:52:16;;;;;;;16.63;10.40;;;6.80;99.90;;;;;;5010731;28;20404;-83
2022/01/02 01:54:42;;;;;;;16.90;10.30;;;6.80;99.90;;;;;;4982704;28;20035;-82
2022/01/02 01:57:07;;;;;;;18.27;10.68;;;6.80;99.90;;;;;;4989497;28;20034;-84
2022/01/02 01:59:33;;;;;;;21.58;11.35;;;6.80;99.90;;;;;;5006226;28;20022;-83
2022/01/02 02:01:59;;;;;;;17.13;10.98;;;6.80;99.90;;;;;;4989793;28;20415;-81
2022/01/02 02:04:24;;;;;;;15.85;10.55;;;6.80;99.90;;;;;;4999846;28;20034;-83
2022/01/02 02:06:53;;;;;;;15.50;10.05;;;6.80;99.90;;;;;;4980159;28;20428;-84
2022/01/02 02:09:20;;;;;;;16.23;10.15;;;6.80;99.90;;;;;;4976267;28;20039;-83
2022/01/02 02:11:46;;;;;;;15.68;10.15;;;6.70;99.90;;;;;;4975335;28;20030;-86
2022/01/02 02:14:13;;;;;;;18.02;11.10;;;6.60;99.90;;;;;;4978752;28;20471;-82
2022/01/02 02:16:39;;;;;;;16.70;10.48;;;6.60;99.90;;;;;;4978274;28;20030;-86
2022/01/02 02:19:05;;;;;;;15.63;10.10;;;6.70;99.90;;;;;;4995861;28;20484;-82
2022/01/02 02:21:37;;;;;;;15.35;9.98;;;6.60;99.90;;;;;;4987798;28;20117;-81
2022/01/02 02:24:10;;;;;;;16.88;9.82;;;6.60;99.90;;;;;;4986486;28;20385;-83
2022/01/02 02:26:37;;;;;;;15.73;10.30;;;6.50;99.90;;;;;;4978486;28;20031;-83
2022/01/02 02:29:05;;;;;;;18.77;10.13;;;6.40;99.90;;;;;;4997659;28;20044;-81
2022/01/02 02:31:31;;;;;;;15.20;9.98;;;6.30;99.90;;;;;;4981044;28;20395;-84
2022/01/02 02:33:56;;;;;;;16.55;10.50;;;6.30;99.90;;;;;;4977375;28;20090;-81
2022/01/02 02:36:22;;;;;;;15.25;9.88;;;6.30;99.90;;;;;;4980410;28;20048;-81
2022/01/02 02:38:48;;;;;;;16.00;9.88;;;6.30;99.90;;;;;;4976799;28;20031;-81
2022/01/02 02:41:14;;;;;;;15.80;9.45;;;6.30;99.90;;;;;;4988852;28;20083;-81
2022/01/02 02:43:55;;;;;;;16.33;9.50;;;6.40;99.90;;;;;;4983508;28;20084;-86
2022/01/02 02:49:06;;;;;;;17.80;10.82;;;6.30;99.90;;;;;;4983614;28;20038;-81
2022/01/02 02:54:23;;;;;;;14.00;9.57;;;6.50;99.90;;;;;;4992070;28;20159;-81
2022/01/02 02:57:10;;;;;;;13.05;8.80;;;6.40;99.90;;;;;;4996854;28;20058;-81
2022/01/02 02:59:36;;;;;;;15.70;9.68;;;6.40;99.90;;;;;;4979961;28;20026;-81
2022/01/02 03:02:02;;;;;;;13.43;8.60;;;6.30;99.90;;;;;;4990441;28;20080;-81
2022/01/02 03:04:27;;;;;;;13.88;8.95;;;6.30;99.90;;;;;;4990488;28;20028;-81
2022/01/02 03:06:54;;;;;;;16.50;9.48;;;6.20;99.90;;;;;;4980716;28;20114;-82
2022/01/02 03:09:37;;;;;;;13.80;8.98;;;6.20;99.90;;;;;;4993310;28;20507;-85
2022/01/02 03:12:03;;;;;;;14.52;9.23;;;6.30;99.90;;;;;;4990075;28;20075;-82
2022/01/02 03:14:28;;;;;;;14.13;8.70;;;6.20;99.90;;;;;;4977911;28;20090;-83
2022/01/02 03:16:54;;;;;;;13.45;8.35;;;6.20;99.90;;;;;;4987593;28;20042;-82
2022/01/02 03:19:20;;;;;;;12.90;8.60;;;6.30;99.90;;;;;;4974727;28;20038;-82
2022/01/02 03:21:46;;;;;;;14.52;9.57;;;7.00;99.90;;;;;;4975892;28;20034;-81
2022/01/02 03:24:11;;;;;;;14.55;9.40;;;6.30;99.90;;;;;;4983513;28;20065;-85
2022/01/02 03:26:37;;;;;;;14.80;8.65;;;6.30;99.90;;;;;;4989649;28;20062;-84
2022/01/02 03:29:03;;;;;;;14.02;8.98;;;7.20;99.90;;;;;;4977780;28;20057;-84
2022/01/02 03:31:29;;;;;;;12.73;8.30;;;6.30;99.90;;;;;;4981740;28;20121;-83
2022/01/02 03:33:55;;;;;;;12.90;8.27;;;6.20;99.90;;;;;;4978435;28;20023;-81
2022/01/02 03:36:20;;;;;;;13.60;8.80;;;6.20;99.90;;;;;;4990749;28;20019;-82
2022/01/02 03:38:46;;;;;;;14.15;9.32;;;6.20;99.90;;;;;;4989030;28;20042;-82
2022/01/02 03:41:12;;;;;;;16.45;9.35;;;6.30;99.90;;;;;;4989479;28;20401;-81
2022/01/02 03:43:38;;;;;;;13.43;8.90;;;6.20;99.90;;;;;;4985191;28;20380;-83
2022/01/02 03:46:04;;;;;;;21.35;10.85;;;6.30;99.90;;;;;;4976340;28;20045;-83
2022/01/02 03:48:32;;;;;;;14.13;8.63;;;6.30;99.90;;;;;;4994384;28;20056;-84
2022/01/02 03:50:57;;;;;;;19.20;10.75;;;6.30;99.90;;;;;;4975484;28;20026;-82
2022/01/02 03:53:23;;;;;;;14.98;8.35;;;6.20;99.90;;;;;;4992745;28;20034;-80
2022/01/02 03:55:49;;;;;;;13.57;7.93;;;6.20;99.90;;;;;;4996651;28;20031;-81
2022/01/02 03:58:14;;;;;;;14.60;9.30;;;6.20;99.90;;;;;;4988015;28;20043;-81
2022/01/02 04:00:40;;;;;;;13.48;8.18;;;6.30;99.90;;;;;;4991390;28;20034;-83
2022/01/02 04:03:06;;;;;;;14.20;8.52;;;6.30;99.90;;;;;;4983208;28;20038;-84
2022/01/02 04:05:31;;;;;;;12.98;7.90;;;6.30;99.90;;;;;;4983491;28;20062;-82
2022/01/02 04:07:57;;;;;;;14.90;8.23;;;6.30;99.90;;;;;;4982712;28;20031;-82
2022/01/02 04:10:22;;;;;;;16.65;8.88;;;6.30;99.90;;;;;;4988761;28;20042;-82
2022/01/02 04:12:48;;;;;;;14.00;7.75;;;6.30;99.90;;;;;;4994277;28;20073;-82
2022/01/02 04:15:15;;;;;;;11.65;7.35;;;6.40;99.90;;;;;;4987547;28;20076;-82
2022/01/02 04:17:41;;;;;;;12.75;8.18;;;6.40;99.90;;;;;;4976755;28;20027;-81
2022/01/02 04:20:10;;;;;;;13.10;8.15;;;6.40;99.90;;;;;;4989145;28;20038;-86
2022/01/02 04:22:36;;;;;;;12.35;7.50;;;6.40;99.90;;;;;;4976992;28;20536;-80
2022/01/02 04:25:03;;;;;;;11.10;7.63;;;6.40;99.90;;;;;;4980596;28;20219;-82
2022/01/02 04:27:29;;;;;;;12.90;8.15;;;6.50;99.90;;;;;;4988267;28;20495;-83
2022/01/02 04:29:55;;;;;;;13.63;8.05;;;6.40;99.90;;;;;;4993485;28;20030;-81
2022/01/02 04:32:20;;;;;;;15.05;7.88;;;6.40;99.90;;;;;;4992201;28;20476;-81
2022/01/02 04:34:46;;;;;;;14.05;8.75;;;6.40;99.90;;;;;;4984874;28;20027;-81
2022/01/02 04:37:13;;;;;;;15.18;7.88;;;6.50;99.90;;;;;;4979565;28;20406;-78
2022/01/02 04:39:39;;;;;;;12.40;8.77;;;6.50;99.90;;;;;;4981420;28;20061;-81
2022/01/02 04:42:05;;;;;;;11.68;7.53;;;6.50;99.90;;;;;;4991584;28;20536;-82
2022/01/02 04:44:31;;;;;;;12.95;7.65;;;6.50;99.90;;;;;;4998773;28;20024;-80
2022/01/02 04:46:57;;;;;;;12.18;7.95;;;6.50;99.90;;;;;;4984815;28;20058;-84
2022/01/02 04:49:22;;;;;;;14.70;7.95;;;8.10;99.90;;;;;;4981359;28;23118;-82
2022/01/02 04:51:48;;;;;;;14.07;8.00;;;6.50;99.90;;;;;;5014916;28;20114;-79
2022/01/02 04:54:14;;;;;;;12.88;7.75;;;6.50;99.90;;;;;;4989521;28;20027;-82
2022/01/02 04:56:40;;;;;;;16.13;8.52;;;6.60;99.90;;;;;;4985326;28;20108;-83
2022/01/02 04:59:07;;;;;;;12.55;7.90;;;6.50;99.90;;;;;;4993668;28;20391;-80
2022/01/02 05:01:33;;;;;;;13.20;8.25;;;6.50;99.90;;;;;;5001252;28;20070;-79
2022/01/02 05:03:58;;;;;;;12.90;8.30;;;6.50;99.90;;;;;;4982580;28;20058;-81
2022/01/02 05:06:24;;;;;;;14.13;8.07;;;6.50;99.90;;;;;;4989261;28;20121;-84
2022/01/02 05:08:49;;;;;;;15.40;8.57;;;6.50;99.90;;;;;;4995373;28;20030;-80
2022/01/02 05:11:16;;;;;;;13.63;8.55;;;7.80;99.90;;;;;;5000646;28;20093;-83
2022/01/02 05:13:42;;;;;;;13.52;7.88;;;6.50;99.90;;;;;;4982610;28;20023;-82
2022/01/02 05:16:08;;;;;;;15.32;8.30;;;6.50;99.90;;;;;;4993948;28;20037;-82
2022/01/02 05:18:33;;;;;;;14.05;8.52;;;6.50;99.90;;;;;;4995334;28;20031;-83
2022/01/02 05:20:59;;;;;;;12.90;8.30;;;6.50;99.90;;;;;;4987842;28;20488;-81
2022/01/02 05:23:25;;;;;;;13.52;8.18;;;6.50;99.90;;;;;;4993448;28;20027;-82
2022/01/02 05:25:51;;;;;;;12.88;8.23;;;6.50;99.90;;;;;;4989512;28;20121;-83
2022/01/02 05:28:16;;;;;;;16.20;8.57;;;6.50;99.90;;;;;;4981483;28;20050;-82
2022/01/02 05:30:42;;;;;;;16.80;9.38;;;6.50;99.90;;;;;;4985509;28;20027;-81
2022/01/02 05:33:08;;;;;;;12.27;8.10;;;6.50;99.90;;;;;;4990874;28;20022;-82
2022/01/02 05:35:34;;;;;;;13.70;8.40;;;6.50;99.90;;;;;;5000085;28;20024;-80
2022/01/02 05:38:01;;;;;;;11.95;7.90;;;6.40;99.90;;;;;;4991920;28;20034;-81
2022/01/02 05:40:32;;;;;;;12.05;8.20;;;6.50;99.90;;;;;;4987746;28;20039;-82
2022/01/02 05:43:07;;;;;;;13.38;7.75;;;6.50;99.90;;;;;;4990346;28;20073;-80
2022/01/02 05:45:33;;;;;;;12.77;7.82;;;7.10;99.90;;;;;;4980936;28;20031;-81
2022/01/02 05:48:00;;;;;;;11.82;8.05;;;6.50;99.90;;;;;;4999767;28;20030;-81
2022/01/02 05:50:26;;;;;;;12.30;7.25;;;6.50;99.90;;;;;;4982768;28;20056;-80
2022/01/02 05:52:52;;;;;;;13.27;8.35;;;6.50;99.90;;;;;;4979790;28;20190;-81
2022/01/02 05:55:17;;;;;;;13.48;7.57;;;6.50;99.90;;;;;;4982862;28;20031;-82
2022/01/02 05:57:43;;;;;;;11.60;7.32;;;6.60;99.90;;;;;;4998090;28;20029;-85
2022/01/02 06:00:12;;;;;;;12.32;7.80;;;6.60;99.90;;;;;;4980570;28;20131;-82
2022/01/02 06:02:37;;;;;;;12.25;7.13;;;6.60;99.90;;;;;;4979729;28;20083;-84
2022/01/02 06:05:06;;;;;;;12.73;7.78;;;6.60;99.90;;;;;;4981601;28;20039;-81
2022/01/02 06:07:33;;;;;;;14.95;7.82;;;6.60;99.90;;;;;;4995223;28;20477;-81
2022/01/02 06:09:58;;;;;;;12.80;7.78;;;6.60;99.90;;;;;;4983020;28;20039;-80
2022/01/02 06:12:24;;;;;;;11.63;7.32;;;6.60;99.90;;;;;;4979352;28;20019;-85
2022/01/02 06:14:50;;;;;;;11.13;6.95;;;6.60;99.90;;;;;;4991354;28;20061;-82
2022/01/02 06:17:19;;;;;;;11.13;7.60;;;6.70;99.90;;;;;;4976961;28;20031;-83
2022/01/02 06:19:44;;;;;;;25.58;12.57;;;6.70;99.90;;;;;;4974226;28;20026;-83
2022/01/02 06:22:10;;;;;;;11.43;7.72;;;6.70;99.90;;;;;;4978733;28;20038;-81
2022/01/02 06:24:35;;;;;;;10.88;7.78;;;6.80;99.90;;;;;;5008902;28;20091;-85
2022/01/02 06:27:01;;;;;;;15.55;8.23;;;6.70;99.90;;;;;;4975076;28;20696;-81
2022/01/02 06:29:26;;;;;;;12.82;7.75;;;6.70;99.90;;;;;;4988785;28;20031;-82
2022/01/02 06:31:52;;;;;;;12.07;7.28;;;6.70;99.90;;;;;;4978095;28;20022;-84
2022/01/02 06:34:18;;;;;;;11.25;7.57;;;6.70;99.90;;;;;;4975456;28;20553;-81
2022/01/02 06:36:44;;;;;;;15.20;8.75;;;;;;;;;;4983818;28;20492;-82
2022/01/02 06:39:09;;;;;;;18.38;9.80;;;6.70;99.90;;;;;;4989933;28;20032;-81
2022/01/02 06:41:35;;;;;;;14.23;9.13;;;9.90;99.90;;;;;;4981898;28;20034;-83
2022/01/02 06:44:01;;;;;;;19.98;11.13;;;9.00;99.90;;;;;;4982412;28;20312;-83
2022/01/02 06:46:26;;;;;;;16.35;10.80;;;6.70;99.90;;;;;;4995816;28;20412;-81
2022/01/02 06:48:52;;;;;;;34.10;15.93;;;6.70;99.90;;;;;;4988589;28;20026;-83
2022/01/02 06:51:17;;;;;;;11.55;7.97;;;6.70;99.90;;;;;;4978903;28;20027;-81
2022/01/02 06:53:43;;;;;;;15.07;9.35;;;6.70;99.90;;;;;;4985222;28;20034;-83
2022/01/02 06:56:08;;;;;;;14.35;8.98;;;6.80;99.90;;;;;;4980361;28;20384;-80
2022/01/02 06:58:38;;;;;;;14.38;9.73;;;6.70;99.90;;;;;;4977781;28;20038;-82
2022/01/02 07:01:04;;;;;;;16.60;8.45;;;7.20;99.90;;;;;;4971891;28;20038;-83
2022/01/02 07:03:31;;;;;;;13.82;8.52;;;6.70;99.90;;;;;;4979776;28;20106;-81
2022/01/02 07:05:56;;;;;;;14.50;7.63;;;6.70;99.90;;;;;;4970131;28;20045;-82
2022/01/02 07:08:22;;;;;;;13.73;7.95;;;6.70;99.90;;;;;;4980791;28;20540;-81
2022/01/02 07:10:48;;;;;;;10.98;7.32;;;6.80;99.90;;;;;;4982979;28;20022;-81
2022/01/02 07:13:13;;;;;;;13.98;7.82;;;6.80;99.90;;;;;;4986379;28;20038;-81
2022/01/02 07:15:39;;;;;;;11.38;6.90;;;6.90;99.90;;;;;;4991405;28;20034;-82
2022/01/02 07:18:05;;;;;;;9.77;6.65;;;7.10;99.90;;;;;;4995767;28;20047;-85
2022/01/02 07:20:30;;;;;;;14.15;8.05;;;8.10;99.90;;;;;;4985394;28;20042;-87
2022/01/02 07:22:56;;;;;;;12.85;8.10;;;7.00;99.90;;;;;;4983759;28;20084;-81
2022/01/02 07:25:21;;;;;;;11.23;6.55;;;7.10;99.90;;;;;;4993421;28;20027;-84
2022/01/02 07:27:47;;;;;;;17.35;8.30;;;7.10;99.90;;;;;;4983359;28;20152;-84
2022/01/02 07:30:12;;;;;;;14.13;7.82;;;7.10;99.90;;;;;;4993119;28;20034;-83
2022/01/02 07:32:39;;;;;;;12.13;7.35;;;7.20;99.90;;;;;;5000429;28;20030;-82
2022/01/02 07:35:06;;;;;;;13.02;7.55;;;7.20;99.90;;;;;;4997028;28;20084;-82
2022/01/02 07:37:35;;;;;;;16.50;8.25;;;7.30;99.90;;;;;;4992318;28;20037;-83
2022/01/02 07:40:05;;;;;;;10.48;6.80;;;7.30;99.90;;;;;;4982165;28;20034;-81
2022/01/02 07:42:31;;;;;;;11.52;6.43;;;7.30;99.90;;;;;;5016882;28;20029;-82
2022/01/02 07:44:58;;;;;;;10.52;6.72;;;7.40;99.90;;;;;;4979281;28;20041;-84
2022/01/02 07:47:24;;;;;;;13.48;7.25;;;7.50;99.90;;;;;;4995102;28;20076;-83
2022/01/02 07:49:49;;;;;;;11.65;6.57;;;7.50;99.90;;;;;;4983706;28;20031;-82
2022/01/02 07:52:15;;;;;;;15.65;7.07;;;7.50;99.90;;;;;;5001034;28;20499;-83
2022/01/02 07:54:40;;;;;;;9.88;6.18;;;7.50;99.90;;;;;;4986432;28;20061;-80
2022/01/02 07:57:06;;;;;;;9.52;6.18;;;7.60;99.90;;;;;;4996421;28;20031;-83
2022/01/02 07:59:32;;;;;;;12.02;6.57;;;7.70;99.90;;;;;;4982104;28;20491;-84
2022/01/02 08:01:58;;;;;;;10.05;6.13;;;7.60;99.90;;;;;;4977500;28;20018;-82
2022/01/02 08:04:23;;;;;;;11.55;6.40;;;7.60;99.90;;;;;;4982558;28;20116;-83
2022/01/02 08:06:49;;;;;;;11.05;7.00;;;7.70;99.90;;;;;;4989586;28;20022;-83
2022/01/02 08:09:15;;;;;;;10.82;6.55;;;7.70;99.90;;;;;;4982924;28;20027;-87
2022/01/02 08:11:40;;;;;;;10.57;6.25;;;7.70;99.90;;;;;;4990188;28;20027;-86
2022/01/02 08:14:06;;;;;;;11.00;6.78;;;7.80;99.90;;;;;;4978199;28;20057;-82
2022/01/02 08:16:32;;;;;;;10.75;5.93;;;7.60;99.90;;;;;;4993149;28;20030;-85
2022/01/02 08:19:00;;;;;;;16.60;8.10;;;7.60;99.90;;;;;;4991420;28;20026;-84
2022/01/02 08:21:26;;;;;;;14.10;8.13;;;9.50;99.90;;;;;;4988977;28;20092;-84
2022/01/02 08:23:52;;;;;;;10.05;6.53;;;;;;;;;;5007701;28;20034;-86
2022/01/02 08:26:18;;;;;;;14.40;7.50;;;7.80;99.90;;;;;;4995887;28;20079;-81
2022/01/02 08:28:43;;;;;;;12.68;7.45;;;7.70;99.90;;;;;;4995197;28;20477;-79
2022/01/02 08:31:09;;;;;;;9.82;6.20;;;7.70;99.90;;;;;;4986082;28;20030;-79
2022/01/02 08:33:35;;;;;;;10.82;6.95;;;7.70;99.90;;;;;;4989768;28;20050;-83
2022/01/02 08:36:00;;;;;;;10.93;6.97;;;7.70;99.90;;;;;;4980534;28;20066;-82
2022/01/02 08:38:28;;;;;;;10.93;6.65;;;7.80;99.90;;;;;;4983307;28;20423;-82
2022/01/02 08:40:54;;;;;;;10.40;6.47;;;7.80;99.90;;;;;;4990576;28;20046;-83
2022/01/02 08:43:19;;;;;;;9.88;6.28;;;7.90;99.90;;;;;;4977179;28;20077;-80
2022/01/02 08:45:45;;;;;;;11.68;7.30;;;7.90;99.90;;;;;;4984373;28;20034;-81
2022/01/02 08:48:11;;;;;;;12.75;7.05;;;8.00;99.90;;;;;;4990817;28;20559;-81
2022/01/02 08:50:36;;;;;;;10.65;6.60;;;7.90;99.90;;;;;;5003154;28;20086;-85
2022/01/02 08:53:05;;;;;;;9.48;6.13;;;8.00;99.90;;;;;;4980018;28;20035;-82
2022/01/02 08:55:30;;;;;;;10.20;6.72;;;8.00;99.90;;;;;;4990135;28;20079;-83
2022/01/02 08:57:56;;;;;;;9.43;6.22;;;9.00;99.90;;;;;;4982069;28;20026;-83
2022/01/02 09:00:22;;;;;;;9.27;5.75;;;8.10;99.90;;;;;;4988871;28;20030;-83
2022/01/02 09:02:48;;;;;;;12.98;6.88;;;8.20;99.90;;;;;;4998003;28;20800;-84
2022/01/02 09:05:13;;;;;;;9.93;6.32;;;8.20;99.90;;;;;;4989008;28;20058;-80
2022/01/02 09:07:39;;;;;;;13.20;7.53;;;8.30;99.90;;;;;;4979560;28;20039;-80
2022/01/02 09:10:05;;;;;;;11.82;6.47;;;8.30;99.90;;;;;;4994096;28;20034;-84
2022/01/02 09:12:31;;;;;;;11.30;6.82;;;8.40;99.90;;;;;;4986352;28;20063;-83
2022/01/02 09:14:56;;;;;;;23.65;11.48;;;8.50;99.90;;;;;;4982008;28;20039;-82
2022/01/02 09:17:22;;;;;;;10.02;6.15;;;8.30;99.90;;;;;;4980294;28;20023;-82
2022/01/02 09:19:49;;;;;;;10.80;6.32;;;8.40;99.90;;;;;;4978536;28;20384;-80
2022/01/02 09:22:14;;;;;;;16.00;7.60;;;8.40;99.90;;;;;;4991020;28;20018;-81
2022/01/02 09:24:40;;;;;;;8.10;5.30;;;8.40;99.90;;;;;;4992684;28;20049;-81
2022/01/02 09:27:07;;;;;;;13.60;7.10;;;8.50;99.90;;;;;;5001283;28;20030;-81
2022/01/02 09:29:32;;;;;;;9.95;5.80;;;8.50;99.90;;;;;;4984647;28;20034;-83
2022/01/02 09:31:58;;;;;;;13.95;5.88;;;8.60;99.90;;;;;;5001673;28;20121;-82
2022/01/02 09:34:24;;;;;;;10.18;6.60;;;8.60;99.90;;;;;;4989879;28;20038;-82
2022/01/02 09:36:49;;;;;;;8.70;5.38;;;8.60;99.90;;;;;;4986266;28;20517;-83
2022/01/02 09:39:16;;;;;;;8.57;6.10;;;8.70;99.90;;;;;;4999610;28;20103;-85
2022/01/02 09:41:41;;;;;;;9.57;5.70;;;9.60;99.90;;;;;;4991670;28;20385;-85
2022/01/02 09:44:08;;;;;;;13.02;6.68;;;8.70;99.90;;;;;;4985787;28;20038;-81
2022/01/02 09:46:34;;;;;;;9.77;5.90;;;8.70;99.90;;;;;;4982756;28;20030;-83
2022/01/02 09:49:02;;;;;;;11.05;6.78;;;8.70;99.90;;;;;;4989310;28;20391;-83
2022/01/02 09:51:28;;;;;;;12.40;6.13;;;8.70;99.90;;;;;;4983748;28;20057;-83
2022/01/02 09:53:55;;;;;;;9.23;5.70;;;8.70;99.90;;;;;;4985863;28;20468;-86
2022/01/02 09:56:21;;;;;;;12.63;6.40;;;11.50;99.90;;;;;;4990077;28;20080;-85
2022/01/02 09:58:47;;;;;;;11.95;6.25;;;8.80;99.90;;;;;;5004345;28;20035;-83
2022/01/02 10:01:18;;;;;;;12.25;6.57;;;8.80;99.90;;;;;;4989053;28;20385;-83
2022/01/02 10:03:45;;;;;;;;;;;8.80;99.90;;;;;;4984048;28;20883;-82
2022/01/02 10:06:11;;;;;;;12.68;6.25;;;8.80;99.90;;;;;;4980757;28;20358;-81
2022/01/02 10:08:37;;;;;;;9.75;6.40;;;8.90;99.90;;;;;;4989244;28;20063;-81
2022/01/02 10:11:12;;;;;;;10.13;6.50;;;8.70;99.90;;;;;;4976350;28;20547;-84
2022/01/02 10:13:51;;;;;;;10.55;6.70;;;8.80;99.90;;;;;;4973375;28;20034;-82
2022/01/02 10:16:36;;;;;;;11.25;6.80;;;8.80;99.90;;;;;;4975188;28;20038;-81
2022/01/02 10:19:29;;;;;;;12.15;7.30;;;8.80;99.90;;;;;;4991117;28;20034;-80
2022/01/02 10:22:00;;;;;;;8.65;5.32;;;9.10;99.90;;;;;;4989876;28;20878;-81
2022/01/02 10:24:28;;;;;;;11.32;5.70;;;9.20;99.90;;;;;;4981107;28;20035;-81
2022/01/02 10:27:13;;;;;;;8.18;5.20;;;;;;;;;;4978348;28;20073;-81
2022/01/02 10:29:56;;;;;;;11.48;5.65;;;9.40;99.90;;;;;;4979100;28;20047;-82
2022/01/02 10:32:27;;;;;;;9.75;5.57;;;9.30;99.90;;;;;;5006218;28;20053;-81
2022/01/02 10:34:53;;;;;;;;;;;9.30;99.90;;;;;;4984233;28;20041;-84
2022/01/02 10:37:26;;;;;;;9.27;4.82;;;9.40;99.90;;;;;;4998166;28;19913;-82
2022/01/02 10:39:52;;;;;;;8.88;4.85;;;;;;;;;;4982617;28;20031;-84
2022/01/02 10:42:19;;;;;;;11.10;6.32;;;;;;;;;;5007650;28;20385;-82
2022/01/02 10:44:45;;;;;;;9.63;5.82;;;;;;;;;;4984028;28;20084;-81
2022/01/02 10:47:14;;;;;;;20.08;9.13;;;;;;;;;;5006590;28;20034;-82
2022/01/02 10:50:05;;;;;;;9.07;5.33;;;9.60;99.90;;;;;;5032502;28;20016;-83
2022/01/02 10:52:32;;;;;;;9.40;5.40;;;9.60;99.90;;;;;;4985638;28;20014;-84
2022/01/02 10:55:00;;;;;;;10.38;5.70;;;9.60;99.90;;;;;;4994033;28;20027;-81
2022/01/02 10:57:26;;;;;;;9.93;4.57;;;;;;;;;;4984922;28;20026;-84
2022/01/02 10:59:57;;;;;;;8.27;5.22;;;9.80;99.90;;;;;;4975423;28;20027;-83
2022/01/02 11:02:24;;;;;;;9.73;5.90;;;9.80;99.90;;;;;;4977446;28;20023;-86
2022/01/02 11:05:11;;;;;;;7.80;4.82;;;10.00;99.90;;;;;;4978850;28;20069;-82
2022/01/02 11:07:46;;;;;;;7.80;4.80;;;9.90;99.90;;;;;;4989995;28;20390;-81
2022/01/02 11:10:15;;;;;;;9.40;4.40;;;10.00;99.90;;;;;;4995776;28;20027;-88
2022/01/02 11:12:42;;;;;;;7.18;4.50;;;10.10;99.90;;;;;;4994472;28;20126;-85
2022/01/02 11:15:10;;;;;;;16.23;7.05;;;10.10;99.90;;;;;;4979420;28;20069;-79
2022/01/02 11:17:36;;;;;;;7.45;4.15;;;10.10;99.90;;;;;;4989223;28;20078;-83
2022/01/02 11:20:08;;;;;;;7.15;4.50;;;10.20;99.90;;;;;;4977564;28;20019;-83
2022/01/02 11:22:41;;;;;;;7.53;4.22;;;10.20;99.90;;;;;;4976645;28;20479;-85
2022/01/02 11:25:31;;;;;;;8.30;4.70;;;10.20;99.90;;;;;;4980956;28;20461;-85
2022/01/02 11:28:00;;;;;;;8.95;5.07;;;10.20;99.90;;;;;;4978828;28;20066;-85
2022/01/02 11:30:32;;;;;;;7.82;4.50;;;10.20;99.90;;;;;;4979235;28;20027;-84
2022/01/02 11:33:09;;;;;;;8.68;5.00;;;10.30;99.90;;;;;;4990689;28;20480;-82
2022/01/02 11:35:38;;;;;;;6.85;4.22;;;10.30;99.90;;;;;;5000540;28;20355;-81
2022/01/02 11:38:06;;;;;;;5.80;3.50;;;10.40;99.90;;;;;;4982307;28;20039;-83
2022/01/02 11:40:56;;;;;;;7.50;3.88;;;10.60;99.90;;;;;;4981546;28;20027;-82
2022/01/02 11:43:47;;;;;;;7.53;3.87;;;10.60;99.90;;;;;;4986582;28;20079;-83
2022/01/02 11:46:17;;;;;;;8.00;4.28;;;10.70;99.90;;;;;;4983601;28;20134;-81
2022/01/02 11:48:56;;;;;;;8.18;4.35;;;10.70;99.90;;;;;;4977998;28;20067;-82
2022/01/02 11:51:50;;;;;;;5.95;3.40;;;10.70;99.90;;;;;;4964276;28;20035;-83
2022/01/02 11:54:41;;;;;;;6.53;3.97;;;10.80;99.90;;;;;;4975732;28;20023;-82
2022/01/02 11:57:15;;;;;;;;;;;10.80;99.90;;;;;;4975343;28;20038;-81
2022/01/02 11:59:44;;;;;;;6.97;3.92;;;10.80;99.90;;;;;;4999077;28;19967;-82
2022/01/02 12:02:30;;;;;;;8.13;4.07;;;10.80;99.90;;;;;;4981227;28;20530;-80
2022/01/02 12:05:12;;;;;;;7.65;4.22;;;10.90;99.90;;;;;;4996330;28;20542;-80
2022/01/02 12:07:45;;;;;;;7.40;3.83;;;11.70;99.90;;;;;;4988453;28;20129;-81
2022/01/02 12:10:14;;;;;;;6.38;3.63;;;11.00;99.90;;;;;;4996368;28;20031;-84
2022/01/02 12:13:02;;;;;;;8.75;4.15;;;12.50;99.90;;;;;;4996922;28;20023;-84
2022/01/02 12:15:31;;;;;;;7.57;3.70;;;11.10;99.90;;;;;;4979648;28;20027;-81
2022/01/02 12:18:08;;;;;;;7.18;3.53;;;11.10;99.90;;;;;;5008684;28;20027;-81
2022/01/02 12:21:00;;;;;;;6.03;3.63;;;11.20;99.90;;;;;;4999879;28;20028;-80
2022/01/02 12:23:40;;;;;;;6.93;3.47;;;11.20;99.90;;;;;;4990742;28;20038;-84
2022/01/02 12:26:12;;;;;;;5.97;3.55;;;11.20;99.90;;;;;;4976735;28;20504;-83
2022/01/02 12:28:44;;;;;;;6.72;3.88;;;11.30;99.90;;;;;;4986182;28;20050;-84
2022/01/02 12:31:12;;;;;;;5.18;3.50;;;11.30;99.90;;;;;;4975038;28;20293;-82
2022/01/02 12:33:39;;;;;;;6.50;3.67;;;11.30;99.90;;;;;;4972692;28;20042;-79
2022/01/02 12:36:14;;;;;;;6.22;3.25;;;11.50;99.90;;;;;;4981601;28;20031;-83
2022/01/02 12:39:28;;;;;;;7.60;4.15;;;11.50;99.90;;;;;;4986342;28;20031;-87
2022/01/02 12:41:59;;;;;;;6.82;3.38;;;11.60;99.90;;;;;;5042842;28;20033;-84
2022/01/02 12:44:27;;;;;;;9.00;3.55;;;11.90;99.90;;;;;;5032381;28;20060;-84
2022/01/02 12:46:57;;;;;;;7.15;4.30;;;12.60;99.90;;;;;;4998464;28;20126;-87
2022/01/02 12:49:27;;;;;;;6.82;3.17;;;11.90;99.90;;;;;;4999634;28;20113;-82
2022/01/02 12:52:13;;;;;;;6.22;3.42;;;11.90;99.90;;;;;;4986195;28;20458;-85
2022/01/02 12:54:41;;;;;;;6.53;3.40;;;12.00;99.90;;;;;;5000202;28;20024;-85
2022/01/02 12:57:09;;;;;;;7.50;3.75;;;11.90;99.90;;;;;;4977585;28;20081;-84
2022/01/02 12:59:36;;;;;;;8.13;3.92;;;12.00;99.90;;;;;;4998335;28;20026;-83
2022/01/02 13:02:09;;;;;;;6.00;3.35;;;11.80;99.90;;;;;;4989752;28;20027;-83